Time;durP1;ratioP1;P1;durP2;ratioP2;P2;SDS_P1;SDS_P2;PMS_P1;PMS_P2;Temp;Humidity;BMP_temperature;BMP_pressure;BME280_temperature;BME280_humidity;BME280_pressure;Samples;Min_cycle;Max_cycle;Signal;HPM_P1;HPM_P2
2022/02/28 00:00:23;;;;;;;;;;;6.80;99.90;;;;;;5054559;28;19995;-78
2022/02/28 00:02:49;;;;;;;;;;;6.60;99.90;;;;;;5055632;28;19916;-78
2022/02/28 00:05:15;;;;;;;;;;;6.60;99.90;;;;;;5055876;28;20391;-78
2022/02/28 00:07:40;;;;;;;;;;;6.40;99.90;;;;;;5045407;28;19909;-78
2022/02/28 00:10:06;;;;;;;;;;;6.40;99.90;;;;;;5035663;28;20371;-77
2022/02/28 00:12:32;;;;;;;;;;;6.50;99.90;;;;;;5035700;28;19947;-78
2022/02/28 00:14:58;;;;;;;;;;;6.40;99.90;;;;;;5035524;28;19913;-78
2022/02/28 00:17:23;;;;;;;;;;;6.60;99.90;;;;;;5035298;28;19909;-78
2022/02/28 00:19:49;;;;;;;;;;;6.30;99.90;;;;;;5035726;28;19913;-78
2022/02/28 00:22:14;;;;;;;;;;;6.20;99.90;;;;;;5035367;28;20377;-78
2022/02/28 00:24:40;;;;;;;;;;;6.40;99.90;;;;;;5035406;28;19913;-78
2022/02/28 00:27:06;;;;;;;;;;;6.50;99.90;;;;;;5034998;28;19955;-78
2022/02/28 00:29:32;;;;;;;;;;;6.60;99.90;;;;;;5035365;28;19931;-78
2022/02/28 00:31:58;;;;;;;;;;;6.60;99.90;;;;;;5035275;28;20362;-78
2022/02/28 00:34:24;;;;;;;;;;;6.70;99.90;;;;;;5035269;28;19996;-78
2022/02/28 00:36:50;;;;;;;;;;;6.70;99.90;;;;;;5037021;28;19917;-78
2022/02/28 00:39:16;;;;;;;;;;;6.70;99.90;;;;;;5055129;28;19908;-78
2022/02/28 00:41:41;;;;;;;;;;;6.70;99.90;;;;;;5054879;28;19915;-78
2022/02/28 00:44:07;;;;;;;;;;;6.90;99.90;;;;;;5054763;28;19908;-78
2022/02/28 00:46:32;;;;;;;;;;;7.30;99.90;;;;;;5055011;28;19909;-78
2022/02/28 00:48:58;;;;;;;;;;;7.50;99.90;;;;;;5033853;28;19917;-78
2022/02/28 00:51:24;;;;;;;;;;;7.70;99.90;;;;;;5034881;28;19998;-78
2022/02/28 00:53:49;;;;;;;;;;;7.70;99.90;;;;;;5033329;28;19913;-78
2022/02/28 00:56:15;;;;;;;;;;;7.80;99.90;;;;;;5034754;28;19915;-78
2022/02/28 00:58:40;;;;;;;;;;;7.80;99.90;;;;;;5034306;28;20297;-78
2022/02/28 01:01:06;;;;;;;;;;;7.70;99.90;;;;;;5034643;28;19909;-79
2022/02/28 01:03:32;;;;;;;;;;;7.60;99.90;;;;;;5034668;28;19920;-78
2022/02/28 01:05:57;;;;;;;;;;;7.70;99.90;;;;;;5034422;28;20000;-78
2022/02/28 01:08:23;;;;;;;;;;;7.70;99.90;;;;;;5034175;28;19909;-78
2022/02/28 01:10:49;;;;;;;;;;;7.70;99.90;;;;;;5034531;28;19921;-78
2022/02/28 01:13:15;;;;;;;;;;;7.70;99.90;;;;;;5033140;28;20366;-79
2022/02/28 01:15:41;;;;;;;;;;;7.40;99.90;;;;;;5034478;28;19932;-78
2022/02/28 01:18:08;;;;;;;;;;;7.60;99.90;;;;;;5033865;28;19909;-78
2022/02/28 01:20:34;;;;;;;;;;;7.50;99.90;;;;;;5034578;28;19909;-78
2022/02/28 01:23:00;;;;;;;;;;;7.60;99.90;;;;;;5034161;28;19924;-78
2022/02/28 01:25:25;;;;;;;;;;;7.70;99.90;;;;;;5034268;28;19909;-78
2022/02/28 01:27:51;;;;;;;;;;;7.70;99.90;;;;;;5033909;28;19921;-78
2022/02/28 01:30:17;;;;;;;;;;;7.70;99.90;;;;;;5033974;28;20289;-78
2022/02/28 01:32:42;;;;;;;;;;;7.80;99.90;;;;;;5034181;28;19909;-77
2022/02/28 01:35:09;;;;;;;;;;;7.90;99.90;;;;;;5033973;28;19913;-78
2022/02/28 01:37:35;;;;;;;;;;;7.90;99.90;;;;;;5033498;28;19963;-78
2022/02/28 01:40:00;;;;;;;;;;;7.90;99.90;;;;;;5034028;28;19914;-78
2022/02/28 01:42:26;;;;;;;;;;;8.00;99.90;;;;;;5033695;28;19980;-78
2022/02/28 01:44:52;;;;;;;;;;;8.00;99.90;;;;;;5033953;28;20362;-78
2022/02/28 01:47:17;;;;;;;;;;;8.00;99.90;;;;;;5036332;28;19909;-78
2022/02/28 01:49:43;;;;;;;;;;;8.00;99.90;;;;;;5053823;28;19916;-79
2022/02/28 01:52:09;;;;;;;;;;;8.00;99.90;;;;;;5052435;28;19919;-78
2022/02/28 01:54:34;;;;;;;;;;;7.90;99.90;;;;;;5051557;28;19913;-77
2022/02/28 01:57:00;;;;;;;;;;;7.90;99.90;;;;;;5053414;28;19916;-78
2022/02/28 01:59:26;;;;;;;;;;;7.90;99.90;;;;;;5053624;28;19962;-78
2022/02/28 02:01:51;;;;;;;;;;;8.00;99.90;;;;;;5053741;28;20010;-78
2022/02/28 02:04:17;;;;;;;;;;;8.00;99.90;;;;;;5053615;28;19916;-78
2022/02/28 02:06:43;;;;;;;;;;;8.00;99.90;;;;;;5053556;28;19908;-78
2022/02/28 02:09:09;;;;;;;;;;;8.10;99.90;;;;;;5051693;28;19908;-79
2022/02/28 02:11:35;;;;;;;;;;;8.10;99.90;;;;;;5053456;28;19956;-78
2022/02/28 02:14:01;;;;;;;;;;;8.00;99.90;;;;;;5053535;28;20280;-78
2022/02/28 02:16:26;;;;;;;;;;;8.00;99.90;;;;;;5053427;28;19908;-78
2022/02/28 02:18:52;;;;;;;;;;;8.00;99.90;;;;;;5052964;28;19909;-78
2022/02/28 02:21:18;;;;;;;;;;;8.00;99.90;;;;;;5053372;28;19916;-78
2022/02/28 02:23:43;;;;;;;;;;;8.10;99.90;;;;;;5053325;28;19913;-78
2022/02/28 02:26:13;;;;;;;;;;;8.00;99.90;;;;;;5053374;28;19966;-78
2022/02/28 02:28:43;;;;;;;;;;;8.10;99.90;;;;;;5052883;28;19935;-78
2022/02/28 02:31:09;;;;;;;;;;;8.10;99.90;;;;;;5053315;28;19909;-78
2022/02/28 02:33:35;;;;;;;;;;;8.10;99.90;;;;;;5053196;28;19909;-78
2022/02/28 02:36:02;;;;;;;;;;;8.10;99.90;;;;;;5053045;28;19909;-78
2022/02/28 02:38:28;;;;;;;;;;;8.00;99.90;;;;;;5051349;28;20294;-78
2022/02/28 02:40:54;;;;;;;;;;;8.00;99.90;;;;;;5053185;28;19909;-78
2022/02/28 02:43:20;;;;;;;;;;;8.00;99.90;;;;;;5051740;28;19921;-77
2022/02/28 02:45:46;;;;;;;;;;;8.00;99.90;;;;;;5051815;28;19959;-78
2022/02/28 02:48:16;;;;;;;;;;;7.90;99.90;;;;;;5052630;28;19913;-78
2022/02/28 02:50:42;;;;;;;;;;;7.90;99.90;;;;;;5053064;28;19955;-78
2022/02/28 02:53:07;;;;;;;;;;;7.90;99.90;;;;;;5053023;28;20377;-78
2022/02/28 02:55:33;;;;;;;;;;;7.80;99.90;;;;;;5052967;28;19908;-78
2022/02/28 02:58:00;;;;;;;;;;;7.90;99.90;;;;;;5052751;28;19912;-78
2022/02/28 03:00:26;;;;;;;;;;;7.90;99.90;;;;;;5052925;28;19963;-78
2022/02/28 03:02:52;;;;;;;;;;;7.90;99.90;;;;;;5052898;28;20332;-78
2022/02/28 03:05:17;;;;;;;;;;;7.90;99.90;;;;;;5053005;28;19909;-78
2022/02/28 03:07:43;;;;;;;;;;;8.00;99.90;;;;;;5055425;28;19916;-78
2022/02/28 03:10:09;;;;;;;;;;;7.90;99.90;;;;;;5055515;28;19951;-77
2022/02/28 03:12:34;;;;;;;;;;;7.90;99.90;;;;;;5056757;28;20392;-78
2022/02/28 03:15:00;;;;;;;;;;;8.00;99.90;;;;;;5057044;28;19909;-78
2022/02/28 03:17:25;;;;;;;;;;;8.00;99.90;;;;;;5054157;28;19909;-78
2022/02/28 03:19:51;;;;;;;;;;;8.10;99.90;;;;;;5036649;28;20328;-77
2022/02/28 03:22:16;;;;;;;;;;;8.10;99.90;;;;;;5036519;28;19927;-78
2022/02/28 03:24:42;;;;;;;;;;;8.10;99.90;;;;;;5036411;28;19909;-78
2022/02/28 03:27:08;;;;;;;;;;;8.00;99.90;;;;;;5035267;28;20317;-78
2022/02/28 03:29:33;;;;;;;;;;;7.90;99.90;;;;;;5055674;28;19944;-78
2022/02/28 03:31:59;;;;;;;;;;;8.00;99.90;;;;;;5055071;28;20395;-78
2022/02/28 03:34:24;;;;;;;;;;;8.00;99.90;;;;;;5056345;28;19915;-78
2022/02/28 03:36:50;;;;;;;;;;;7.90;99.90;;;;;;5056096;28;19963;-78
2022/02/28 03:39:16;;;;;;;;;;;7.80;99.90;;;;;;5055846;28;19909;-77
2022/02/28 03:41:41;;;;;;;;;;;7.70;99.90;;;;;;5056066;28;19909;-78
2022/02/28 03:44:07;;;;;;;;;;;7.70;99.90;;;;;;5056502;28;20382;-78
2022/02/28 03:46:33;;;;;;;;;;;7.70;99.90;;;;;;5056114;28;19943;-78
2022/02/28 03:48:59;;;;;;;;;;;7.70;99.90;;;;;;5055667;28;19909;-78
2022/02/28 03:51:24;;;;;;;;;;;7.60;99.90;;;;;;5056029;28;20376;-78
2022/02/28 03:53:50;;;;;;;;;;;7.60;99.90;;;;;;5055894;28;19916;-78
2022/02/28 03:56:15;;;;;;;;;;;7.60;99.90;;;;;;5056077;28;20360;-78
2022/02/28 03:58:41;;;;;;;;;;;7.60;99.90;;;;;;5044006;28;20346;-78
2022/02/28 04:01:07;;;;;;;;;;;7.50;99.90;;;;;;5035925;28;20354;-78
2022/02/28 04:03:33;;;;;;;;;;;7.50;99.90;;;;;;5035856;28;20274;-79
2022/02/28 04:05:58;;;;;;;;;;;7.40;99.90;;;;;;5035620;28;19916;-78
2022/02/28 04:08:24;;;;;;;;;;;7.20;99.90;;;;;;5035518;28;20456;-78
2022/02/28 04:10:50;;;;;;;;;;;7.20;99.90;;;;;;5035624;28;19909;-78
2022/02/28 04:13:16;;;;;;;;;;;7.10;99.90;;;;;;5034366;28;20373;-78
2022/02/28 04:15:42;;;;;;;;;;;7.20;99.90;;;;;;5035653;28;19917;-78
2022/02/28 04:18:07;;;;;;;;;;;7.20;99.90;;;;;;5040756;28;19909;-78
2022/02/28 04:20:33;;;;;;;;;;;7.20;99.90;;;;;;5055539;28;19945;-78
2022/02/28 04:22:59;;;;;;;;;;;7.30;99.90;;;;;;5055310;28;20369;-78
2022/02/28 04:25:24;;;;;;;;;;;7.30;99.90;;;;;;5055486;28;19909;-77
2022/02/28 04:27:50;;;;;;;;;;;7.20;99.90;;;;;;5055027;28;19909;-78
2022/02/28 04:30:16;;;;;;;;;;;7.20;99.90;;;;;;5053804;28;20372;-78
2022/02/28 04:32:42;;;;;;;;;;;7.30;99.90;;;;;;5053979;28;19909;-78
2022/02/28 04:35:08;;;;;;;;;;;7.30;99.90;;;;;;5053893;28;19909;-78
2022/02/28 04:37:33;;;;;;;;;;;7.30;99.90;;;;;;5054763;28;20288;-78
2022/02/28 04:39:59;;;;;;;;;;;7.20;99.90;;;;;;5055136;28;19913;-78
2022/02/28 04:42:24;;;;;;;;;;;7.10;99.90;;;;;;5054877;28;19917;-78
2022/02/28 04:44:50;;;;;;;;;;;7.10;99.90;;;;;;5055025;28;20338;-78
2022/02/28 04:47:16;;;;;;;;;;;7.10;99.90;;;;;;5053731;28;20034;-78
2022/02/28 04:49:41;;;;;;;;;;;7.10;99.90;;;;;;5054342;28;19908;-78
2022/02/28 04:52:07;;;;;;;;;;;7.10;99.90;;;;;;5054884;28;19909;-78
2022/02/28 04:54:32;;;;;;;;;;;7.00;99.90;;;;;;5054799;28;20407;-78
2022/02/28 04:56:58;;;;;;;;;;;7.00;99.90;;;;;;5054794;28;19909;-78
2022/02/28 04:59:24;;;;;;;;;;;7.10;99.90;;;;;;5054509;28;19909;-78
2022/02/28 05:01:49;;;;;;;;;;;7.10;99.90;;;;;;5053080;28;20434;-78
2022/02/28 05:04:15;;;;;;;;;;;7.30;99.90;;;;;;5054821;28;19915;-78
2022/02/28 05:06:40;;;;;;;;;;;7.40;99.90;;;;;;5054452;28;19909;-78
2022/02/28 05:09:07;;;;;;;;;;;7.40;99.90;;;;;;5054029;28;20007;-78
2022/02/28 05:11:32;;;;;;;;;;;7.50;99.90;;;;;;5054513;28;19916;-78
2022/02/28 05:13:59;;;;;;;;;;;7.60;99.90;;;;;;5054379;28;20281;-78
2022/02/28 05:16:25;;;;;;;;;;;7.60;99.90;;;;;;5052986;28;20327;-77
2022/02/28 05:18:51;;;;;;;;;;;7.70;99.90;;;;;;5053691;28;19913;-78
2022/02/28 05:21:16;;;;;;;;;;;7.70;99.90;;;;;;5054219;28;19909;-78
2022/02/28 05:23:42;;;;;;;;;;;7.70;99.90;;;;;;5054235;28;19931;-78
2022/02/28 05:26:10;;;;;;;;;;;7.60;99.90;;;;;;5053674;28;20374;-78
2022/02/28 05:28:36;;;;;;;;;;;7.70;99.90;;;;;;5053436;28;19995;-78
2022/02/28 05:31:01;;;;;;;;;;;7.70;99.90;;;;;;5053751;28;19932;-78
2022/02/28 05:33:27;;;;;;;;;;;7.70;99.90;;;;;;5054074;28;20315;-78
2022/02/28 05:35:52;;;;;;;;;;;7.70;99.90;;;;;;5054041;28;20032;-78
2022/02/28 05:38:18;;;;;;;;;;;7.80;99.90;;;;;;5053486;28;19920;-78
2022/02/28 05:40:44;;;;;;;;;;;7.80;99.90;;;;;;5053917;28;20394;-78
2022/02/28 05:43:09;;;;;;;;;;;7.80;99.90;;;;;;5053797;28;19921;-77
2022/02/28 05:45:37;;;;;;;;;;;7.80;99.90;;;;;;5052673;28;19908;-78
2022/02/28 05:48:03;;;;;;;;;;;7.80;99.90;;;;;;5050806;28;19940;-78
2022/02/28 05:50:29;;;;;;;;;;;7.70;99.90;;;;;;5033550;28;20420;-78
2022/02/28 05:52:55;;;;;;;;;;;7.80;99.90;;;;;;5032400;28;19909;-78
2022/02/28 05:55:20;;;;;;;;;;;7.80;99.90;;;;;;5033699;28;19909;-78
2022/02/28 05:57:47;;;;;;;;;;;7.70;99.90;;;;;;5033784;28;19909;-78
2022/02/28 06:00:13;;;;;;;;;;;7.70;99.90;;;;;;5032395;28;19909;-78
2022/02/28 06:02:39;;;;;;;;;;;7.70;99.90;;;;;;5033581;28;19920;-78
2022/02/28 06:05:04;;;;;;;;;;;7.70;99.90;;;;;;5033569;28;19913;-78
2022/02/28 06:07:30;;;;;;;;;;;7.60;99.90;;;;;;5033581;28;19963;-78
2022/02/28 06:09:56;;;;;;;;;;;7.60;99.90;;;;;;5033067;28;19945;-78
2022/02/28 06:12:21;;;;;;;;;;;7.50;99.90;;;;;;5032245;28;20396;-78
2022/02/28 06:14:47;;;;;;;;;;;7.40;99.90;;;;;;5033533;28;19959;-78
2022/02/28 06:17:12;;;;;;;;;;;7.30;99.90;;;;;;5032047;28;19909;-78
2022/02/28 06:19:40;;;;;;;;;;;7.40;99.90;;;;;;5032985;28;19913;-78
2022/02/28 06:22:05;;;;;;;;;;;7.30;99.90;;;;;;5033353;28;20008;-78
2022/02/28 06:24:31;;;;;;;;;;;7.40;99.90;;;;;;5032031;28;19960;-78
2022/02/28 06:26:56;;;;;;;;;;;7.40;99.90;;;;;;5033529;28;20285;-78
2022/02/28 06:29:22;;;;;;;;;;;7.40;99.90;;;;;;5032897;28;20008;-78
2022/02/28 06:31:48;;;;;;;;;;;7.30;99.90;;;;;;5033325;28;19960;-78
2022/02/28 06:34:14;;;;;;;;;;;7.30;99.90;;;;;;5033315;28;19909;-78
2022/02/28 06:36:40;;;;;;;;;;;7.30;99.90;;;;;;5031767;28;19921;-78
2022/02/28 06:39:07;;;;;;;;;;;7.30;99.90;;;;;;5042959;28;19966;-77
2022/02/28 06:41:32;;;;;;;;;;;7.40;99.90;;;;;;5055646;28;19909;-78
2022/02/28 06:43:58;;;;;;;;;;;7.40;99.90;;;;;;5055954;28;19917;-78
2022/02/28 06:46:23;;;;;;;;;;;7.30;99.90;;;;;;5057064;28;19916;-78
2022/02/28 06:48:49;;;;;;;;;;;7.30;99.90;;;;;;5056760;28;20403;-78
2022/02/28 06:51:15;;;;;;;;;;;7.40;99.90;;;;;;5057113;28;19908;-78
2022/02/28 06:53:41;;;;;;;;;;;7.30;99.90;;;;;;5056819;28;20297;-78
2022/02/28 06:56:08;;;;;;;;;;;7.40;99.90;;;;;;5057041;28;19909;-78
2022/02/28 06:58:34;;;;;;;;;;;7.30;99.90;;;;;;5051708;28;19909;-78
2022/02/28 07:01:00;;;;;;;;;;;7.30;99.90;;;;;;5037043;28;19963;-78
2022/02/28 07:03:25;;;;;;;;;;;7.30;99.90;;;;;;5036688;28;19913;-78
2022/02/28 07:05:53;;;;;;;;;;;7.40;99.90;;;;;;5036734;28;19909;-77
2022/02/28 07:08:19;;;;;;;;;;;7.50;99.90;;;;;;5036660;28;19909;-78
2022/02/28 07:10:45;;;;;;;;;;;7.50;99.90;;;;;;5036755;28;19913;-78
2022/02/28 07:13:11;;;;;;;;;;;7.50;99.90;;;;;;5036796;28;19915;-77
2022/02/28 07:15:39;;;;;;;;;;;7.40;99.90;;;;;;5035389;28;19916;-78
2022/02/28 07:18:04;;;;;;;;;;;7.50;99.90;;;;;;5036056;28;19952;-78
2022/02/28 07:20:30;;;;;;;;;;;7.50;99.90;;;;;;5036651;28;19953;-78
2022/02/28 07:22:55;;;;;;;;;;;7.50;99.90;;;;;;5036496;28;20396;-78
2022/02/28 07:25:21;;;;;;;;;;;7.50;99.90;;;;;;5036554;28;19916;-78
2022/02/28 07:27:46;;;;;;;;;;;7.60;99.90;;;;;;5036440;28;20000;-78
2022/02/28 07:30:12;;;;;;;;;;;7.60;99.90;;;;;;5034687;28;19916;-78
2022/02/28 07:32:38;;;;;;;;;;;7.60;99.90;;;;;;5035111;28;20259;-78
2022/02/28 07:35:04;;;;;;;;;;;7.60;99.90;;;;;;5035169;28;19909;-78
2022/02/28 07:37:31;;;;;;;;;;;7.80;99.90;;;;;;5036202;28;20008;-78
2022/02/28 07:39:56;;;;;;;;;;;7.80;99.90;;;;;;5035788;28;20008;-78
2022/02/28 07:42:22;;;;;;;;;;;7.90;99.90;;;;;;5034561;28;19996;-78
2022/02/28 07:44:48;;;;;;;;;;;7.90;99.90;;;;;;5036246;28;19917;-78
2022/02/28 07:47:13;;;;;;;;;;;8.00;99.90;;;;;;5036315;28;19935;-78
2022/02/28 07:49:39;;;;;;;;;;;7.90;99.90;;;;;;5035657;28;19949;-78
2022/02/28 07:52:05;;;;;;;;;;;8.00;99.90;;;;;;5033826;28;19909;-78
2022/02/28 07:54:31;;;;;;;;;;;8.20;99.90;;;;;;5035880;28;20377;-78
2022/02/28 07:56:56;;;;;;;;;;;8.20;99.90;;;;;;5035990;28;19910;-78
2022/02/28 07:59:22;;;;;;;;;;;8.20;99.90;;;;;;5045599;28;19913;-78
2022/02/28 08:01:47;;;;;;;;;;;8.20;99.90;;;;;;5055753;28;19909;-78
2022/02/28 08:04:13;;;;;;;;;;;8.20;99.90;;;;;;5055900;28;20015;-78
2022/02/28 08:06:39;;;;;;;;;;;8.30;99.90;;;;;;5054277;28;19908;-78
2022/02/28 08:09:04;;;;;;;;;;;8.30;99.90;;;;;;5054010;28;20335;-78
2022/02/28 08:11:30;;;;;;;;;;;8.40;99.90;;;;;;5055745;28;19931;-78
2022/02/28 08:13:55;;;;;;;;;;;8.30;99.90;;;;;;5055616;28;20319;-78
2022/02/28 08:16:21;;;;;;;;;;;8.40;99.90;;;;;;5055665;28;19909;-78
2022/02/28 08:18:47;;;;;;;;;;;8.40;99.90;;;;;;5055237;28;19908;-78
2022/02/28 08:21:12;;;;;;;;;;;8.50;99.90;;;;;;5055456;28;20337;-78
2022/02/28 08:23:38;;;;;;;;;;;8.50;99.90;;;;;;5055461;28;19913;-78
2022/02/28 08:26:03;;;;;;;;;;;8.70;99.90;;;;;;5055363;28;19916;-78
2022/02/28 08:28:29;;;;;;;;;;;8.80;99.90;;;;;;5055149;28;19959;-78
2022/02/28 08:30:55;;;;;;;;;;;8.80;99.90;;;;;;5055226;28;19916;-78
2022/02/28 08:33:20;;;;;;;;;;;8.90;99.90;;;;;;5055362;28;19952;-77
2022/02/28 08:35:46;;;;;;;;;;;8.90;99.90;;;;;;5055265;28;19909;-78
2022/02/28 08:38:11;;;;;;;;;;;9.00;99.90;;;;;;5054752;28;20408;-78
2022/02/28 08:40:37;;;;;;;;;;;9.10;99.90;;;;;;5054631;28;19963;-78
2022/02/28 08:43:03;;;;;;;;;;;9.20;99.90;;;;;;5054994;28;19948;-78
2022/02/28 08:45:28;;;;;;;;;;;9.30;99.90;;;;;;5055107;28;20439;-78
2022/02/28 08:47:54;;;;;;;;;;;9.40;99.90;;;;;;5053714;28;20015;-77
2022/02/28 08:50:20;;;;;;;;;;;9.50;99.90;;;;;;5053138;28;19917;-78
2022/02/28 08:52:46;;;;;;;;;;;9.60;99.90;;;;;;5053529;28;19908;-78
2022/02/28 08:55:12;;;;;;;;;;;9.70;99.90;;;;;;5054704;28;19909;-78
2022/02/28 08:57:37;;;;;;;;;;;9.80;99.90;;;;;;5054863;28;19909;-78
2022/02/28 09:00:08;;;;;;;;;;;9.70;99.90;;;;;;5054344;28;19916;-78
2022/02/28 09:02:33;;;;;;;;;;;9.80;99.90;;;;;;5054739;28;19913;-78
2022/02/28 09:04:59;;;;;;;;;;;10.00;99.90;;;;;;5054417;28;20429;-78
2022/02/28 09:07:25;;;;;;;;;;;9.90;99.90;;;;;;5054667;28;19909;-78
2022/02/28 09:09:50;;;;;;;;;;;10.00;99.90;;;;;;5054213;28;19908;-78
2022/02/28 09:12:16;;;;;;;;;;;9.90;99.90;;;;;;5053508;28;19909;-78
2022/02/28 09:14:41;;;;;;;;;;;9.80;99.90;;;;;;5054547;28;19916;-78
2022/02/28 09:17:07;;;;;;;;;;;9.70;99.90;;;;;;5053006;28;19909;-78
2022/02/28 09:19:33;;;;;;;;;;;9.80;99.90;;;;;;5054085;28;19909;-78
2022/02/28 09:21:58;;;;;;;;;;;9.70;99.90;;;;;;5054137;28;19912;-78
2022/02/28 09:24:24;;;;;;;;;;;9.80;99.90;;;;;;5054200;28;19909;-78
2022/02/28 09:26:50;;;;;;;;;;;9.60;99.90;;;;;;5054276;28;19995;-78
2022/02/28 09:29:16;;;;;;;;;;;9.80;99.90;;;;;;5053983;28;20039;-77
2022/02/28 09:31:41;;;;;;;;;;;9.60;99.90;;;;;;5052939;28;19916;-78
2022/02/28 09:34:07;;;;;;;;;;;9.50;99.90;;;;;;5054087;28;19915;-78
2022/02/28 09:36:33;;;;;;;;;;;9.60;99.90;;;;;;5053877;28;19917;-78
2022/02/28 09:38:58;;;;;;;;;;;9.60;99.90;;;;;;5053705;28;19915;-78
2022/02/28 09:41:25;;;;;;;;;;;9.60;99.90;;;;;;5053856;28;19908;-78
2022/02/28 09:43:52;;;;;;;;;;;9.60;99.90;;;;;;5053808;28;19923;-77
2022/02/28 09:46:18;;;;;;;;;;;9.60;99.90;;;;;;5052567;28;20008;-78
2022/02/28 09:48:45;;;;;;;;;;;9.50;99.90;;;;;;5053617;28;20353;-78
2022/02/28 09:51:11;;;;;;;;;;;9.60;99.90;;;;;;5052436;28;19915;-78
2022/02/28 09:53:37;;;;;;;;;;;9.40;99.90;;;;;;5053737;28;19991;-78
2022/02/28 09:56:02;;;;;;;;;;;9.50;99.90;;;;;;5053728;28;19923;-78
2022/02/28 09:58:29;;;;;;;;;;;9.60;99.90;;;;;;5053775;28;20360;-78
2022/02/28 10:00:56;;;;;;;;;;;9.70;99.90;;;;;;5053212;28;19989;-78
2022/02/28 10:03:26;;;;;;;;;;;9.80;99.90;;;;;;5052201;28;19920;-78
2022/02/28 10:05:58;;;;;;;;;;;9.80;99.90;;;;;;5053471;28;20284;-78
2022/02/28 10:08:24;;;;;;;;;;;9.80;99.90;;;;;;5053535;28;20420;-78
2022/02/28 10:10:49;;;;;;;;;;;10.00;99.90;;;;;;5053007;28;19967;-78
2022/02/28 10:13:24;;;;;;;;;;;10.10;99.90;;;;;;5053450;28;19990;-78
2022/02/28 10:15:50;;;;;;;;;;;10.00;99.90;;;;;;5051452;28;20051;-78
2022/02/28 10:18:15;;;;;;;;;;;10.10;99.90;;;;;;5053148;28;20435;-78
2022/02/28 10:20:42;;;;;;;;;;;10.10;99.90;;;;;;5036852;28;19909;-78
2022/02/28 10:23:09;;;;;;;;;;;10.00;99.90;;;;;;5033386;28;19913;-78
2022/02/28 10:25:39;;;;;;;;;;;9.90;99.90;;;;;;5033398;28;19913;-78
2022/02/28 10:28:22;;;;;;;;;;;10.00;99.90;;;;;;5032989;28;19924;-78
2022/02/28 10:30:51;;;;;;;;;;;10.00;99.90;;;;;;5032934;28;19916;-78
2022/02/28 10:33:16;;;;;;;;;;;10.10;99.90;;;;;;5031977;28;19948;-78
2022/02/28 10:36:01;;;;;;;;;;;10.20;99.90;;;;;;5033269;28;19944;-78
2022/02/28 10:38:28;;;;;;;;;;;10.40;99.90;;;;;;5033348;28;20297;-78
2022/02/28 10:40:54;;;;;;;;;;;10.40;99.90;;;;;;5050283;28;19916;-78
2022/02/28 10:43:24;;;;;;;;;;;10.30;99.90;;;;;;5053058;28;19920;-78
2022/02/28 10:45:49;;;;;;;;;;;10.30;99.90;;;;;;5053128;28;19913;-78
2022/02/28 10:48:15;;;;;;;;;;;10.40;99.90;;;;;;5053089;28;19909;-78
2022/02/28 10:50:41;;;;;;;;;;;10.50;99.90;;;;;;5052661;28;19909;-78
2022/02/28 10:53:14;;;;;;;;;;;10.60;99.90;;;;;;5053026;28;19916;-78
2022/02/28 10:55:40;;;;;;;;;;;10.80;99.90;;;;;;5053006;28;19952;-78
2022/02/28 10:58:06;;;;;;;;;;;10.90;99.90;;;;;;5053054;28;19948;-78
2022/02/28 11:00:32;;;;;;;;;;;11.00;99.90;;;;;;5051148;28;20383;-78
2022/02/28 11:03:04;;;;;;;;;;;11.00;99.90;;;;;;5053047;28;19913;-78
2022/02/28 11:05:29;;;;;;;;;;;11.20;99.90;;;;;;5052791;28;19909;-78
2022/02/28 11:07:58;;;;;;;;;;;11.50;99.90;;;;;;5053100;28;19909;-78
2022/02/28 11:10:23;;;;;;;;;;;11.60;99.90;;;;;;5039865;28;19916;-78
2022/02/28 11:12:49;;;;;;;;;;;11.60;99.90;;;;;;5032981;28;19913;-78
2022/02/28 11:15:16;;;;;;;;;;;11.80;99.90;;;;;;5033046;28;19963;-78
2022/02/28 11:17:43;;;;;;;;;;;11.80;99.90;;;;;;5032752;28;19920;-78
2022/02/28 11:20:11;;;;;;;;;;;11.90;99.90;;;;;;5042944;28;20403;-78
2022/02/28 11:22:38;;;;;;;;;;;11.90;99.90;;;;;;5052756;28;20393;-78
2022/02/28 11:25:04;;;;;;;;;;;11.90;99.90;;;;;;5053006;28;20277;-78
2022/02/28 11:27:31;;;;;;;;;;;11.90;99.90;;;;;;5053552;28;19948;-78
2022/02/28 11:30:05;;;;;;;;;;;12.10;99.90;;;;;;5056054;28;19913;-78
2022/02/28 11:32:31;;;;;;;;;;;12.20;99.90;;;;;;5056489;28;19954;-78
2022/02/28 11:35:15;;;;;;;;;;;12.00;99.90;;;;;;5055064;28;19948;-78
2022/02/28 11:37:41;;;;;;;;;;;11.90;99.90;;;;;;5056058;28;19917;-78
2022/02/28 11:40:07;;;;;;;;;;;11.80;99.90;;;;;;5056022;28;19996;-78
2022/02/28 11:42:51;;;;;;;;;;;12.00;99.90;;;;;;5055905;28;19917;-78
2022/02/28 11:45:20;;;;;;;;;;;12.00;99.90;;;;;;5056091;28;19908;-78
2022/02/28 11:47:46;;;;;;;;;;;12.00;99.90;;;;;;5056331;28;20004;-79
2022/02/28 11:50:15;;;;;;;;;;;12.10;99.90;;;;;;5055677;28;20407;-78
2022/02/28 11:52:41;;;;;;;;;;;11.80;99.90;;;;;;5054567;28;19909;-79
2022/02/28 11:55:11;;;;;;;;;;;11.70;99.90;;;;;;5055824;28;19915;-78
2022/02/28 11:57:53;;;;;;;;;;;11.80;99.90;;;;;;5056005;28;20003;-78
2022/02/28 12:00:20;;;;;;;;;;;11.80;99.90;;;;;;5055534;28;19940;-78
2022/02/28 12:02:46;;;;;;;;;;;11.50;99.90;;;;;;5055724;28;19995;-78
2022/02/28 12:05:31;;;;;;;;;;;11.60;99.90;;;;;;5055918;28;20411;-78
2022/02/28 12:07:56;;;;;;;;;;;11.60;99.90;;;;;;5055722;28;19956;-78
2022/02/28 12:10:22;;;;;;;;;;;11.70;99.90;;;;;;5055402;28;19994;-78
2022/02/28 12:12:57;;;;;;;;;;;11.70;99.90;;;;;;5055658;28;19909;-78
2022/02/28 12:15:22;;;;;;;;;;;11.60;99.90;;;;;;5055685;28;19971;-78
2022/02/28 12:17:48;;;;;;;;;;;11.50;99.90;;;;;;5055338;28;20377;-78
2022/02/28 12:20:16;;;;;;;;;;;11.60;99.90;;;;;;5055295;28;19909;-78
2022/02/28 12:23:08;;;;;;;;;;;11.50;99.90;;;;;;5055306;28;19913;-79
2022/02/28 12:25:33;;;;;;;;;;;11.40;99.90;;;;;;5053910;28;19915;-78
2022/02/28 12:28:17;;;;;;;;;;;11.50;99.90;;;;;;5055387;28;19909;-78
2022/02/28 12:30:52;;;;;;;;;;;11.50;99.90;;;;;;5041995;28;19945;-78
2022/02/28 12:33:43;;;;;;;;;;;11.50;99.90;;;;;;5034103;28;19916;-78
2022/02/28 12:36:09;;;;;;;;;;;11.60;99.90;;;;;;5034871;28;20003;-78
2022/02/28 12:38:34;;;;;;;;;;;11.60;99.90;;;;;;5034858;28;20048;-78
2022/02/28 12:41:01;;;;;;;;;;;11.50;99.90;;;;;;5034703;28;19913;-78
2022/02/28 12:43:28;;;;;;;;;;;11.50;99.90;;;;;;5035111;28;19924;-78
2022/02/28 12:45:55;;;;;;;;;;;11.60;99.90;;;;;;5035006;28;19909;-78
2022/02/28 12:48:21;;;;;;;;;;;11.70;99.90;;;;;;5035139;28;19913;-78
2022/02/28 12:50:51;;;;;;;;;;;11.80;99.90;;;;;;5034725;28;19975;-78
2022/02/28 12:53:16;;;;;;;;;;;11.60;99.90;;;;;;5034811;28;19916;-78
2022/02/28 12:55:57;;;;;;;;;;;12.00;99.90;;;;;;5034972;28;19909;-78
2022/02/28 12:58:24;;;;;;;;;;;12.10;99.90;;;;;;5034998;28;19916;-78
2022/02/28 13:00:50;;;;;;;;;;;12.20;99.90;;;;;;5034333;28;19967;-78
2022/02/28 13:03:16;;;;;;;;;;;12.20;99.90;;;;;;5034679;28;19920;-79
2022/02/28 13:05:53;;;;;;;;;;;12.00;99.90;;;;;;5034579;28;19909;-78
2022/02/28 13:08:19;;;;;;;;;;;11.90;99.90;;;;;;5034773;28;20403;-78
2022/02/28 13:10:44;;;;;;;;;;;12.10;99.90;;;;;;5034209;28;19913;-78
2022/02/28 13:13:21;;;;;;;;;;;12.10;99.90;;;;;;5034566;28;20370;-78
2022/02/28 13:15:56;;;;;;;;;;;12.00;99.90;;;;;;5034682;28;19932;-78
2022/02/28 13:18:25;;;;;;;;;;;11.90;99.90;;;;;;5034309;28;20447;-78
2022/02/28 13:20:50;;;;;;;;;;;11.70;99.90;;;;;;5034062;28;19974;-78
2022/02/28 13:23:16;;;;;;;;;;;11.80;99.90;;;;;;5034382;28;20433;-78
2022/02/28 13:25:47;;;;;;;;;;;12.10;99.90;;;;;;5034399;28;20439;-78
2022/02/28 13:28:13;;;;;;;;;;;12.00;99.90;;;;;;5034261;28;19952;-78
2022/02/28 13:30:38;;;;;;;;;;;11.90;99.90;;;;;;5033937;28;19990;-78
2022/02/28 13:33:04;;;;;;;;;;;12.10;99.90;;;;;;5034176;28;20592;-78
2022/02/28 13:35:29;;;;;;;;;;;11.80;99.90;;;;;;5034185;28;19913;-78
2022/02/28 13:37:55;;;;;;;;;;;11.70;99.90;;;;;;5033728;28;19960;-79
2022/02/28 13:40:23;;;;;;;;;;;11.90;99.90;;;;;;5041151;28;19909;-78
2022/02/28 13:42:48;;;;;;;;;;;11.90;99.90;;;;;;5052359;28;19917;-78
2022/02/28 13:45:19;;;;;;;;;;;12.00;99.90;;;;;;5053935;28;19908;-78
2022/02/28 13:47:45;;;;;;;;;;;11.90;99.90;;;;;;5054072;28;19909;-78
2022/02/28 13:50:11;;;;;;;;;;;11.90;99.90;;;;;;5052770;28;20379;-78
2022/02/28 13:52:37;;;;;;;;;;;11.80;99.90;;;;;;5052453;28;20292;-78
2022/02/28 13:55:03;;;;;;;;;;;11.90;99.90;;;;;;5053533;28;20280;-78
2022/02/28 13:57:32;;;;;;;;;;;11.80;99.90;;;;;;5053816;28;19909;-78
2022/02/28 14:00:15;;;;;;;;;;;11.60;99.90;;;;;;5052143;28;19963;-78
2022/02/28 14:02:57;;;;;;;;;;;11.60;99.90;;;;;;5053635;28;19912;-78
2022/02/28 14:05:26;;;;;;;;;;;11.50;99.90;;;;;;5053442;28;19909;-79
2022/02/28 14:07:59;;;;;;;;;;;11.50;99.90;;;;;;5053588;28;19913;-78
2022/02/28 14:10:25;;;;;;;;;;;11.60;99.90;;;;;;5053139;28;19999;-78
2022/02/28 14:12:51;;;;;;;;;;;11.50;99.90;;;;;;5053634;28;20414;-78
2022/02/28 14:15:21;;;;;;;;;;;11.70;99.90;;;;;;5053431;28;19912;-78
2022/02/28 14:17:56;;;;;;;;;;;11.70;99.90;;;;;;5053470;28;20015;-78
2022/02/28 14:20:22;;;;;;;;;;;11.80;99.90;;;;;;5051578;28;19916;-78
2022/02/28 14:23:04;;;;;;;;;;;11.90;99.90;;;;;;5053383;28;19913;-78